createdAt,value
2019-03-31T00:00:36.936Z,27.90
2019-03-31T00:01:37.361Z,30.40
2019-03-31T00:02:36.894Z,27.30
2019-03-31T00:03:36.872Z,30.50
2019-03-31T00:04:36.848Z,27.40
2019-03-31T00:05:37.454Z,29.80
2019-03-31T00:06:36.809Z,28.70
2019-03-31T00:07:36.787Z,27.70
2019-03-31T00:08:36.775Z,33.70
2019-03-31T00:09:37.050Z,27.40
2019-03-31T00:10:36.750Z,30.30
2019-03-31T00:11:36.709Z,28.30
2019-03-31T00:12:36.690Z,28.90
2019-03-31T00:13:36.668Z,29.00
2019-03-31T00:14:36.650Z,30.60
2019-03-31T00:15:36.625Z,27.10
2019-03-31T00:16:36.956Z,32.70
2019-03-31T00:17:36.587Z,28.90
2019-03-31T00:18:36.563Z,29.00
2019-03-31T00:19:36.546Z,28.10
2019-03-31T00:20:36.576Z,31.30
2019-03-31T00:21:36.553Z,30.40
2019-03-31T00:22:36.484Z,28.00
2019-03-31T00:23:36.756Z,27.90
2019-03-31T00:24:36.441Z,30.50
2019-03-31T00:25:36.426Z,31.70
2019-03-31T00:26:36.400Z,30.60
2019-03-31T00:27:36.379Z,29.80
2019-03-31T00:28:36.366Z,28.30
2019-03-31T00:29:36.349Z,29.50
2019-03-31T00:30:36.322Z,29.80
2019-03-31T00:31:36.299Z,30.20
2019-03-31T00:32:36.281Z,32.20
2019-03-31T00:33:36.262Z,27.30
2019-03-31T00:34:36.236Z,29.50
2019-03-31T00:35:36.221Z,32.50
2019-03-31T00:36:36.201Z,31.70
2019-03-31T00:37:36.473Z,32.00
2019-03-31T00:38:36.322Z,35.40
2019-03-31T00:39:36.190Z,28.80
2019-03-31T00:40:36.118Z,30.30
2019-03-31T00:41:36.102Z,31.10
2019-03-31T00:42:36.074Z,31.20
2019-03-31T00:43:36.053Z,31.80
2019-03-31T00:44:36.036Z,33.60
2019-03-31T00:45:36.022Z,35.10
2019-03-31T00:46:35.997Z,31.90
2019-03-31T00:47:35.977Z,31.30
2019-03-31T00:48:35.956Z,33.10
2019-03-31T00:49:35.989Z,32.90
2019-03-31T00:50:35.916Z,32.50
2019-03-31T00:51:35.893Z,33.80
2019-03-31T00:52:35.875Z,30.50
2019-03-31T00:53:35.858Z,36.10
2019-03-31T00:54:35.841Z,33.70
2019-03-31T00:55:35.942Z,32.50
2019-03-31T00:56:35.793Z,33.70
2019-03-31T00:57:35.765Z,32.40
2019-03-31T00:58:35.744Z,35.90
2019-03-31T00:59:35.759Z,33.80
2019-03-31T01:00:35.717Z,35.10
2019-03-31T01:01:36.990Z,33.40
2019-03-31T01:02:35.670Z,35.10
2019-03-31T01:03:35.650Z,35.90
2019-03-31T01:04:35.636Z,37.10
2019-03-31T01:05:35.605Z,37.10
2019-03-31T01:06:35.593Z,34.50
2019-03-31T01:07:35.568Z,37.70
2019-03-31T01:08:35.548Z,39.20
2019-03-31T01:09:35.609Z,34.20
2019-03-31T01:10:35.510Z,38.10
2019-03-31T01:11:35.488Z,33.60
2019-03-31T01:12:35.474Z,34.00
2019-03-31T01:13:35.451Z,35.50
2019-03-31T01:14:35.429Z,36.90
2019-03-31T01:15:35.406Z,34.40
2019-03-31T01:16:35.385Z,33.90
2019-03-31T01:17:35.366Z,41.10
2019-03-31T01:18:35.421Z,36.10
2019-03-31T01:19:35.327Z,35.80
2019-03-31T01:20:35.308Z,42.00
2019-03-31T01:21:35.284Z,34.80
2019-03-31T01:22:35.267Z,36.00
2019-03-31T01:23:35.244Z,37.10
2019-03-31T01:24:35.225Z,36.40
2019-03-31T01:25:35.205Z,36.50
2019-03-31T01:26:35.182Z,40.20
2019-03-31T01:27:35.166Z,36.20
2019-03-31T01:28:35.143Z,34.60
2019-03-31T01:29:35.118Z,37.30
2019-03-31T01:30:35.104Z,33.70
2019-03-31T01:31:35.085Z,37.00
2019-03-31T01:32:35.071Z,40.40
2019-03-31T01:33:35.045Z,37.60
2019-03-31T01:34:35.036Z,39.00
2019-03-31T01:35:35.002Z,34.30
2019-03-31T01:36:34.979Z,36.40
2019-03-31T01:37:34.974Z,38.10
2019-03-31T01:38:34.939Z,35.40
2019-03-31T01:39:34.924Z,38.20
2019-03-31T01:40:34.908Z,36.20
2019-03-31T01:41:34.879Z,40.40
2019-03-31T01:42:34.859Z,39.00
2019-03-31T01:43:34.839Z,36.20
2019-03-31T01:44:34.819Z,37.20
2019-03-31T01:45:34.798Z,36.90
2019-03-31T01:46:34.792Z,40.70
2019-03-31T01:47:34.756Z,37.40
2019-03-31T01:48:34.743Z,39.20
2019-03-31T01:49:34.718Z,38.90
2019-03-31T01:50:34.698Z,39.50
2019-03-31T01:51:34.676Z,38.60
2019-03-31T01:52:34.657Z,37.90
2019-03-31T01:53:34.636Z,41.20
2019-03-31T01:54:34.615Z,42.00
2019-03-31T01:55:34.597Z,44.20
2019-03-31T01:56:34.577Z,43.00
2019-03-31T01:57:34.559Z,43.00
2019-03-31T01:58:34.535Z,39.60
2019-03-31T01:59:34.515Z,41.60
2019-03-31T02:00:34.497Z,43.90
2019-03-31T02:01:34.477Z,41.50
2019-03-31T02:02:34.454Z,37.10
2019-03-31T02:03:34.434Z,44.00
2019-03-31T02:04:34.417Z,41.60
2019-03-31T02:05:34.396Z,42.60
2019-03-31T02:06:34.374Z,42.40
2019-03-31T02:07:34.353Z,43.90
2019-03-31T02:08:34.334Z,44.20
2019-03-31T02:09:34.321Z,45.10
2019-03-31T02:10:34.290Z,44.40
2019-03-31T02:11:34.273Z,50.80
2019-03-31T02:12:34.252Z,42.20
2019-03-31T02:13:34.236Z,48.10
2019-03-31T02:14:34.211Z,45.70
2019-03-31T02:15:34.207Z,42.90
2019-03-31T02:16:34.167Z,48.30
2019-03-31T02:17:34.159Z,43.40
2019-03-31T02:18:34.129Z,42.00
2019-03-31T02:19:34.109Z,46.00
2019-03-31T02:20:34.082Z,45.30
2019-03-31T02:21:34.075Z,43.30
2019-03-31T02:22:34.051Z,44.20
2019-03-31T02:23:34.050Z,46.80
2019-03-31T02:24:34.015Z,47.30
2019-03-31T02:25:33.986Z,44.40
2019-03-31T02:26:33.967Z,45.80
2019-03-31T02:27:33.950Z,44.10
2019-03-31T02:28:33.929Z,46.90
2019-03-31T02:29:33.920Z,46.60
2019-03-31T02:30:33.991Z,47.40
2019-03-31T02:31:33.866Z,44.40
2019-03-31T02:32:33.850Z,45.60
2019-03-31T02:33:33.828Z,49.10
2019-03-31T02:34:43.273Z,46.40
2019-03-31T02:36:38.938Z,46.50
2019-03-31T02:37:38.846Z,50.30
2019-03-31T02:38:38.799Z,44.40
2019-03-31T02:39:38.887Z,46.60
2019-03-31T02:40:38.857Z,46.10
2019-03-31T02:41:38.706Z,49.20
2019-03-31T02:42:38.491Z,47.70
2019-03-31T02:43:38.730Z,48.80
2019-03-31T02:44:38.166Z,52.10
2019-03-31T02:45:38.108Z,53.10
2019-03-31T02:46:38.084Z,48.80
2019-03-31T02:47:38.033Z,55.10
2019-03-31T02:48:37.990Z,50.30
2019-03-31T02:49:38.021Z,52.40
2019-03-31T02:50:37.970Z,49.80
2019-03-31T02:51:37.942Z,53.10
2019-03-31T02:52:37.958Z,51.20
2019-03-31T02:53:37.888Z,52.30
2019-03-31T02:54:37.920Z,52.50
2019-03-31T02:55:37.867Z,51.00
2019-03-31T02:56:37.879Z,58.70
2019-03-31T02:57:37.828Z,50.60
2019-03-31T02:58:37.855Z,49.70
2019-03-31T02:59:37.801Z,47.90
2019-03-31T03:00:37.742Z,49.50
2019-03-31T03:01:37.806Z,53.70
2019-03-31T03:02:42.089Z,50.30
2019-03-31T03:03:37.759Z,54.50
2019-03-31T03:04:37.694Z,52.90
2019-03-31T03:05:37.710Z,54.20
2019-03-31T03:06:37.671Z,56.00
2019-03-31T03:07:37.597Z,52.50
2019-03-31T03:08:37.606Z,52.60
2019-03-31T03:09:37.653Z,55.00
2019-03-31T03:10:37.591Z,57.20
2019-03-31T03:11:37.546Z,53.80
2019-03-31T03:12:37.526Z,57.00
2019-03-31T03:13:37.502Z,51.20
2019-03-31T03:14:37.490Z,55.50
2019-03-31T03:15:37.468Z,53.70
2019-03-31T03:16:37.520Z,58.00
2019-03-31T03:17:37.434Z,56.40
2019-03-31T03:18:37.422Z,56.20
2019-03-31T03:19:37.404Z,60.10
2019-03-31T03:20:37.359Z,52.60
2019-03-31T03:21:37.348Z,57.00
2019-03-31T03:22:37.332Z,54.10
2019-03-31T03:23:37.356Z,52.50
2019-03-31T03:24:37.353Z,58.00
2019-03-31T03:25:54.608Z,56.70
2019-03-31T03:26:37.258Z,58.90
2019-03-31T03:27:37.225Z,54.70
2019-03-31T03:28:37.224Z,51.50
2019-03-31T03:29:37.280Z,62.20
2019-03-31T03:30:37.236Z,60.60
2019-03-31T03:31:37.540Z,56.40
2019-03-31T03:32:37.670Z,56.10
2019-03-31T03:33:37.077Z,55.90
2019-03-31T03:34:37.079Z,58.80
2019-03-31T03:35:37.073Z,57.10
2019-03-31T03:36:37.023Z,54.70
2019-03-31T03:37:37.008Z,53.30
2019-03-31T03:38:37.000Z,50.10
2019-03-31T03:39:37.000Z,57.90
2019-03-31T03:40:36.970Z,53.70
2019-03-31T03:41:36.937Z,52.90
2019-03-31T03:42:47.245Z,56.00
2019-03-31T03:44:42.038Z,53.70
2019-03-31T03:45:42.039Z,51.60
2019-03-31T03:46:42.027Z,54.70
2019-03-31T03:47:41.993Z,51.20
2019-03-31T03:48:41.988Z,58.00
2019-03-31T03:49:41.928Z,56.40
2019-03-31T03:50:41.902Z,52.30
2019-03-31T03:51:41.902Z,56.50
2019-03-31T03:52:41.850Z,50.20
2019-03-31T03:53:41.870Z,52.20
2019-03-31T03:54:41.745Z,53.70
2019-03-31T03:55:41.811Z,57.00
2019-03-31T03:56:41.712Z,56.00
2019-03-31T03:57:41.756Z,56.20
2019-03-31T03:58:41.803Z,58.50
2019-03-31T03:59:41.789Z,52.40
2019-03-31T04:00:41.676Z,58.00
2019-03-31T04:01:41.612Z,54.30
2019-03-31T04:02:41.688Z,54.10
2019-03-31T04:03:41.655Z,54.80
2019-03-31T04:04:42.203Z,54.20
2019-03-31T04:05:41.672Z,54.90
2019-03-31T04:06:41.569Z,55.00
2019-03-31T04:07:41.543Z,49.40
2019-03-31T04:08:41.565Z,57.10
2019-03-31T04:09:41.446Z,54.70
2019-03-31T04:10:41.249Z,55.40
2019-03-31T04:11:41.491Z,55.50
2019-03-31T04:12:41.473Z,57.40
2019-03-31T04:13:41.425Z,56.30
2019-03-31T04:14:41.482Z,59.20
2019-03-31T04:15:41.383Z,53.30
2019-03-31T04:16:41.339Z,55.20
2019-03-31T04:17:41.354Z,54.80
2019-03-31T04:18:41.299Z,56.20
2019-03-31T04:19:40.889Z,58.70
2019-03-31T04:20:40.687Z,56.40
2019-03-31T04:21:40.597Z,57.20
2019-03-31T04:22:42.345Z,58.00
2019-03-31T04:23:40.596Z,54.50
2019-03-31T04:24:42.442Z,54.40
2019-03-31T04:25:40.525Z,55.50
2019-03-31T04:26:40.505Z,56.10
2019-03-31T04:27:40.898Z,56.50
2019-03-31T04:28:40.894Z,61.20
2019-03-31T04:29:40.521Z,54.80
2019-03-31T04:30:40.528Z,55.10
2019-03-31T04:31:40.534Z,57.60
2019-03-31T04:32:40.416Z,56.90
2019-03-31T04:33:50.561Z,59.00
2019-03-31T04:34:40.342Z,56.80
2019-03-31T04:35:40.392Z,53.50
2019-03-31T04:36:40.308Z,52.80
2019-03-31T04:37:40.300Z,54.40
2019-03-31T04:38:40.260Z,56.00
2019-03-31T04:39:40.239Z,56.00
2019-03-31T04:40:40.182Z,53.20
2019-03-31T04:41:40.188Z,57.50
2019-03-31T04:42:40.196Z,52.50
2019-03-31T04:43:40.391Z,51.80
2019-03-31T04:44:40.122Z,59.30
2019-03-31T04:45:40.261Z,53.50
2019-03-31T04:46:41.925Z,55.70
2019-03-31T04:47:40.074Z,53.80
2019-03-31T04:48:40.054Z,58.70
2019-03-31T04:49:40.194Z,51.80
2019-03-31T04:50:40.130Z,58.10
2019-03-31T04:51:39.999Z,56.50
2019-03-31T04:52:39.999Z,53.60
2019-03-31T04:53:39.968Z,54.10
2019-03-31T04:54:39.973Z,56.50
2019-03-31T04:55:39.872Z,55.50
2019-03-31T04:56:40.001Z,58.00
2019-03-31T04:57:39.861Z,57.60
2019-03-31T04:58:39.836Z,54.00
2019-03-31T04:59:39.874Z,58.60
2019-03-31T05:00:39.763Z,55.80
2019-03-31T05:01:39.940Z,61.50
2019-03-31T05:02:39.805Z,59.20
2019-03-31T05:03:39.759Z,59.60
2019-03-31T05:04:39.768Z,56.80
2019-03-31T05:05:39.685Z,54.40
2019-03-31T05:06:39.688Z,56.20
2019-03-31T05:07:40.057Z,57.00
2019-03-31T05:08:39.596Z,58.70
2019-03-31T05:09:39.653Z,61.00
2019-03-31T05:10:39.716Z,60.30
2019-03-31T05:11:41.669Z,59.10
2019-03-31T05:12:39.607Z,57.80
2019-03-31T05:13:39.521Z,53.90
2019-03-31T05:14:39.564Z,54.00
2019-03-31T05:15:39.563Z,59.10
2019-03-31T05:16:39.456Z,58.70
2019-03-31T05:17:39.432Z,61.20
2019-03-31T05:18:40.350Z,56.50
2019-03-31T05:19:39.389Z,55.20
2019-03-31T05:20:39.526Z,60.20
2019-03-31T05:21:39.565Z,60.00
2019-03-31T05:22:39.353Z,56.50
2019-03-31T05:23:39.307Z,56.90
2019-03-31T05:24:39.409Z,54.40
2019-03-31T05:25:39.502Z,55.80
2019-03-31T05:26:39.248Z,55.20
2019-03-31T05:27:39.204Z,53.30
2019-03-31T05:28:39.242Z,54.20
2019-03-31T05:29:39.201Z,52.00
2019-03-31T05:30:39.161Z,53.70
2019-03-31T05:31:39.185Z,49.30
2019-03-31T05:32:39.155Z,49.40
2019-03-31T05:33:41.474Z,48.60
2019-03-31T05:34:39.110Z,51.00
2019-03-31T05:35:39.138Z,52.20
2019-03-31T05:36:39.356Z,47.40
2019-03-31T05:37:50.377Z,50.50
2019-03-31T05:38:39.026Z,50.40
2019-03-31T05:39:39.028Z,52.90
2019-03-31T05:40:39.489Z,49.10
2019-03-31T05:41:38.945Z,51.90
2019-03-31T05:42:38.994Z,45.50
2019-03-31T05:43:38.898Z,49.30
2019-03-31T05:44:38.942Z,54.00
2019-03-31T05:45:39.223Z,50.60
2019-03-31T05:46:39.843Z,46.60
2019-03-31T05:47:38.936Z,49.50
2019-03-31T05:48:38.787Z,49.60
2019-03-31T05:49:38.780Z,54.40
2019-03-31T05:50:38.722Z,55.60
2019-03-31T05:51:38.759Z,53.20
2019-03-31T05:52:38.823Z,52.30
2019-03-31T05:53:38.736Z,47.90
2019-03-31T05:54:38.825Z,51.10
2019-03-31T05:55:38.929Z,51.60
2019-03-31T05:56:41.913Z,48.70
2019-03-31T05:57:38.693Z,50.80
2019-03-31T05:58:47.942Z,50.40
2019-03-31T06:00:55.385Z,50.80
2019-03-31T06:01:55.450Z,49.00
2019-03-31T06:02:55.285Z,49.80
2019-03-31T06:03:55.425Z,50.60
2019-03-31T06:04:55.573Z,45.70
2019-03-31T06:05:55.288Z,51.00
2019-03-31T06:06:55.115Z,45.50
2019-03-31T06:07:55.266Z,52.90
2019-03-31T06:08:55.272Z,51.30
2019-03-31T06:09:54.961Z,49.50
2019-03-31T06:10:55.261Z,50.80
2019-03-31T06:11:55.335Z,48.70
2019-03-31T06:12:54.541Z,47.00
2019-03-31T06:13:54.495Z,49.00
2019-03-31T06:14:54.481Z,48.00
2019-03-31T06:15:54.450Z,48.70
2019-03-31T06:17:03.807Z,44.20
2019-03-31T06:17:55.080Z,47.70
2019-03-31T06:18:55.043Z,45.50
2019-03-31T06:19:54.626Z,46.80
2019-03-31T06:20:54.993Z,46.60
2019-03-31T06:21:54.978Z,46.70
2019-03-31T06:22:56.162Z,46.10
2019-03-31T06:23:55.175Z,52.60
2019-03-31T06:24:54.263Z,50.40
2019-03-31T06:25:54.238Z,47.00
2019-03-31T06:26:54.262Z,47.90
2019-03-31T06:27:54.251Z,47.10
2019-03-31T06:28:54.247Z,46.30
2019-03-31T06:30:03.511Z,48.40
2019-03-31T06:31:51.385Z,41.40
2019-03-31T06:32:51.324Z,43.70
2019-03-31T06:33:51.861Z,40.40
2019-03-31T06:34:51.402Z,43.70
2019-03-31T06:35:51.256Z,37.80
2019-03-31T06:36:51.081Z,42.90
2019-03-31T06:37:51.304Z,38.50
2019-03-31T06:38:51.391Z,42.70
2019-03-31T06:39:50.564Z,40.90
2019-03-31T06:40:50.663Z,38.60
2019-03-31T06:41:50.599Z,42.70
2019-03-31T06:42:50.509Z,38.00
2019-03-31T06:43:50.478Z,43.90
2019-03-31T06:44:50.449Z,39.00
2019-03-31T06:45:50.449Z,37.60
2019-03-31T06:47:00.735Z,40.80
2019-03-31T06:48:55.013Z,38.40
2019-03-31T06:50:03.798Z,39.10
2019-03-31T06:52:23.130Z,36.50
2019-03-31T06:53:22.892Z,43.40
2019-03-31T06:55:17.556Z,37.50
2019-03-31T06:56:26.481Z,40.00
2019-03-31T06:58:22.026Z,38.70
2019-03-31T06:59:30.458Z,42.30
2019-03-31T07:01:26.626Z,41.60
2019-03-31T07:02:26.551Z,38.40
2019-03-31T07:03:26.380Z,36.60
2019-03-31T07:04:26.678Z,44.10
2019-03-31T07:05:35.857Z,38.60
2019-03-31T07:07:30.718Z,39.80
2019-03-31T07:08:30.591Z,37.90
2019-03-31T07:09:39.191Z,46.10
2019-03-31T07:11:37.820Z,42.40
2019-03-31T07:12:36.788Z,34.00
2019-03-31T07:13:36.827Z,37.80
2019-03-31T07:16:17.484Z,35.80
2019-03-31T07:17:17.592Z,39.80
2019-03-31T07:18:17.309Z,35.60
2019-03-31T07:19:17.232Z,35.30
2019-03-31T07:22:56.055Z,38.30
2019-03-31T07:24:04.739Z,37.70
2019-03-31T07:25:49.654Z,38.50
2019-03-31T07:28:21.100Z,42.00
2019-03-31T07:31:08.796Z,37.30
2019-03-31T07:32:10.695Z,35.80
2019-03-31T07:34:50.550Z,42.40
2019-03-31T07:35:50.308Z,34.70
2019-03-31T07:36:53.955Z,34.40
2019-03-31T07:37:58.877Z,35.80
2019-03-31T07:39:55.074Z,38.20
2019-03-31T07:40:55.354Z,40.00
2019-03-31T07:41:58.453Z,36.10
2019-03-31T07:42:55.583Z,37.40
2019-03-31T07:43:54.777Z,38.40
2019-03-31T07:44:54.120Z,34.10
2019-03-31T07:45:56.008Z,37.90
2019-03-31T07:48:28.949Z,39.80
2019-03-31T07:49:37.345Z,39.10
2019-03-31T07:51:37.332Z,41.30
2019-03-31T07:54:15.666Z,41.20
2019-03-31T07:57:36.928Z,37.80
2019-03-31T07:58:45.089Z,37.10
2019-03-31T07:59:44.061Z,33.80
2019-03-31T08:01:41.688Z,39.40
2019-03-31T08:02:41.756Z,34.30
2019-03-31T08:03:42.224Z,38.60
2019-03-31T08:04:41.744Z,38.60
2019-03-31T08:05:50.204Z,38.10
2019-03-31T08:07:57.181Z,36.80
2019-03-31T08:08:56.644Z,37.00
2019-03-31T08:09:56.669Z,37.50
2019-03-31T08:10:56.839Z,37.50
2019-03-31T08:11:57.023Z,34.30
2019-03-31T08:12:56.581Z,35.70
2019-03-31T08:13:56.551Z,38.80
2019-03-31T08:14:56.082Z,35.50
2019-03-31T08:15:56.038Z,35.80
2019-03-31T08:16:56.035Z,34.70
2019-03-31T08:17:55.987Z,35.80
2019-03-31T08:19:05.390Z,38.40
2019-03-31T08:21:01.032Z,39.10
2019-03-31T08:22:00.973Z,34.80
2019-03-31T08:23:00.974Z,38.40
2019-03-31T08:24:00.904Z,37.80
2019-03-31T08:25:09.635Z,40.70
2019-03-31T08:27:05.713Z,36.90
2019-03-31T08:28:05.278Z,35.20
2019-03-31T08:29:05.381Z,41.30
2019-03-31T08:30:14.083Z,41.40
2019-03-31T08:32:09.682Z,40.40
2019-03-31T08:33:09.715Z,37.50
2019-03-31T08:34:09.741Z,38.30
2019-03-31T08:35:09.703Z,35.80
2019-03-31T08:36:09.669Z,36.70
2019-03-31T08:37:21.461Z,36.10
2019-03-31T09:10:56.264Z,39.90
2019-03-31T09:11:54.944Z,26.10
2019-03-31T09:12:55.001Z,29.60
2019-03-31T09:13:54.892Z,30.20
2019-03-31T09:14:55.335Z,29.20
2019-03-31T09:16:04.338Z,31.70
2019-03-31T09:18:14.176Z,30.60
